sensor_id;sensor_type;location;lat;lon;timestamp;P1;durP1;ratioP1;P2;durP2;ratioP2
77010;SDS011;65945;53.148;17.956;2024-01-30T00:00:44;82.60;;;31.10;;
77010;SDS011;65945;53.148;17.956;2024-01-30T00:03:31;88.50;;;35.90;;
77010;SDS011;65945;53.148;17.956;2024-01-30T00:05:57;82.40;;;34.10;;
77010;SDS011;65945;53.148;17.956;2024-01-30T00:08:24;93.80;;;37.00;;
77010;SDS011;65945;53.148;17.956;2024-01-30T00:10:51;92.30;;;37.00;;
77010;SDS011;65945;53.148;17.956;2024-01-30T00:13:17;75.20;;;30.10;;
77010;SDS011;65945;53.148;17.956;2024-01-30T00:15:46;75.50;;;32.20;;
77010;SDS011;65945;53.148;17.956;2024-01-30T00:18:12;86.60;;;34.70;;
77010;SDS011;65945;53.148;17.956;2024-01-30T00:20:39;123.90;;;42.90;;
77010;SDS011;65945;53.148;17.956;2024-01-30T00:23:06;97.30;;;35.30;;
77010;SDS011;65945;53.148;17.956;2024-01-30T00:25:32;92.80;;;37.20;;
77010;SDS011;65945;53.148;17.956;2024-01-30T00:27:59;100.00;;;37.10;;
77010;SDS011;65945;53.148;17.956;2024-01-30T00:30:26;86.60;;;35.60;;
77010;SDS011;65945;53.148;17.956;2024-01-30T00:32:53;85.20;;;30.10;;
77010;SDS011;65945;53.148;17.956;2024-01-30T00:35:20;93.60;;;34.40;;
77010;SDS011;65945;53.148;17.956;2024-01-30T00:37:48;78.70;;;31.30;;
77010;SDS011;65945;53.148;17.956;2024-01-30T00:40:15;80.20;;;31.00;;
77010;SDS011;65945;53.148;17.956;2024-01-30T00:42:42;80.30;;;33.00;;
77010;SDS011;65945;53.148;17.956;2024-01-30T00:45:15;85.50;;;33.20;;
77010;SDS011;65945;53.148;17.956;2024-01-30T00:47:42;79.40;;;31.80;;
77010;SDS011;65945;53.148;17.956;2024-01-30T00:50:09;78.60;;;31.90;;
77010;SDS011;65945;53.148;17.956;2024-01-30T00:52:37;74.20;;;28.80;;
77010;SDS011;65945;53.148;17.956;2024-01-30T00:55:05;74.20;;;29.70;;
77010;SDS011;65945;53.148;17.956;2024-01-30T00:57:32;66.70;;;27.70;;
77010;SDS011;65945;53.148;17.956;2024-01-30T00:59:58;73.00;;;30.20;;
77010;SDS011;65945;53.148;17.956;2024-01-30T01:02:25;79.70;;;32.30;;
77010;SDS011;65945;53.148;17.956;2024-01-30T01:04:52;78.00;;;30.20;;
77010;SDS011;65945;53.148;17.956;2024-01-30T01:07:18;66.00;;;28.10;;
77010;SDS011;65945;53.148;17.956;2024-01-30T01:09:45;72.60;;;28.30;;
77010;SDS011;65945;53.148;17.956;2024-01-30T01:12:11;79.30;;;29.70;;
77010;SDS011;65945;53.148;17.956;2024-01-30T01:14:38;65.70;;;26.90;;
77010;SDS011;65945;53.148;17.956;2024-01-30T01:17:04;60.30;;;27.40;;
77010;SDS011;65945;53.148;17.956;2024-01-30T01:19:31;78.20;;;30.70;;
77010;SDS011;65945;53.148;17.956;2024-01-30T01:21:58;66.80;;;27.20;;
77010;SDS011;65945;53.148;17.956;2024-01-30T01:24:24;73.60;;;27.40;;
77010;SDS011;65945;53.148;17.956;2024-01-30T01:26:51;57.60;;;25.20;;
77010;SDS011;65945;53.148;17.956;2024-01-30T01:29:17;61.60;;;24.10;;
77010;SDS011;65945;53.148;17.956;2024-01-30T01:31:44;61.40;;;25.00;;
77010;SDS011;65945;53.148;17.956;2024-01-30T01:34:12;64.20;;;25.60;;
77010;SDS011;65945;53.148;17.956;2024-01-30T01:36:39;60.40;;;24.30;;
77010;SDS011;65945;53.148;17.956;2024-01-30T01:39:06;57.70;;;21.90;;
77010;SDS011;65945;53.148;17.956;2024-01-30T01:41:32;65.60;;;26.80;;
77010;SDS011;65945;53.148;17.956;2024-01-30T01:43:59;65.10;;;28.50;;
77010;SDS011;65945;53.148;17.956;2024-01-30T01:46:26;62.10;;;27.60;;
77010;SDS011;65945;53.148;17.956;2024-01-30T01:48:55;67.90;;;29.50;;
77010;SDS011;65945;53.148;17.956;2024-01-30T01:51:23;67.80;;;27.90;;
77010;SDS011;65945;53.148;17.956;2024-01-30T01:53:53;71.20;;;27.30;;
77010;SDS011;65945;53.148;17.956;2024-01-30T01:56:21;70.50;;;28.20;;
77010;SDS011;65945;53.148;17.956;2024-01-30T01:58:50;62.30;;;23.70;;
77010;SDS011;65945;53.148;17.956;2024-01-30T02:01:20;51.60;;;22.30;;
77010;SDS011;65945;53.148;17.956;2024-01-30T02:03:47;60.30;;;24.80;;
77010;SDS011;65945;53.148;17.956;2024-01-30T02:06:14;59.30;;;26.60;;
77010;SDS011;65945;53.148;17.956;2024-01-30T02:08:41;60.50;;;26.30;;
77010;SDS011;65945;53.148;17.956;2024-01-30T02:11:08;58.60;;;25.30;;
77010;SDS011;65945;53.148;17.956;2024-01-30T02:13:36;60.90;;;25.40;;
77010;SDS011;65945;53.148;17.956;2024-01-30T02:16:03;63.90;;;27.60;;
77010;SDS011;65945;53.148;17.956;2024-01-30T02:18:30;60.60;;;28.20;;
77010;SDS011;65945;53.148;17.956;2024-01-30T02:20:58;66.50;;;27.70;;
77010;SDS011;65945;53.148;17.956;2024-01-30T02:23:28;61.40;;;26.50;;
77010;SDS011;65945;53.148;17.956;2024-01-30T02:25:54;66.60;;;27.70;;
77010;SDS011;65945;53.148;17.956;2024-01-30T02:28:21;71.70;;;29.10;;
77010;SDS011;65945;53.148;17.956;2024-01-30T02:30:47;67.10;;;28.20;;
77010;SDS011;65945;53.148;17.956;2024-01-30T02:33:14;62.20;;;27.30;;
77010;SDS011;65945;53.148;17.956;2024-01-30T02:35:41;57.60;;;23.60;;
77010;SDS011;65945;53.148;17.956;2024-01-30T02:38:07;67.30;;;27.80;;
77010;SDS011;65945;53.148;17.956;2024-01-30T02:40:34;47.20;;;20.80;;
77010;SDS011;65945;53.148;17.956;2024-01-30T02:43:01;56.20;;;24.00;;
77010;SDS011;65945;53.148;17.956;2024-01-30T02:45:29;57.70;;;23.90;;
77010;SDS011;65945;53.148;17.956;2024-01-30T02:47:55;66.80;;;27.60;;
77010;SDS011;65945;53.148;17.956;2024-01-30T02:50:22;71.40;;;28.50;;
77010;SDS011;65945;53.148;17.956;2024-01-30T02:52:49;62.90;;;26.30;;
77010;SDS011;65945;53.148;17.956;2024-01-30T02:55:15;70.40;;;31.90;;
77010;SDS011;65945;53.148;17.956;2024-01-30T02:57:45;78.60;;;33.60;;
77010;SDS011;65945;53.148;17.956;2024-01-30T03:00:12;78.90;;;34.10;;
77010;SDS011;65945;53.148;17.956;2024-01-30T03:02:39;75.80;;;33.20;;
77010;SDS011;65945;53.148;17.956;2024-01-30T03:05:06;72.10;;;31.40;;
77010;SDS011;65945;53.148;17.956;2024-01-30T03:07:34;72.50;;;32.50;;
77010;SDS011;65945;53.148;17.956;2024-01-30T03:10:00;70.70;;;27.90;;
77010;SDS011;65945;53.148;17.956;2024-01-30T03:12:27;60.20;;;27.20;;
77010;SDS011;65945;53.148;17.956;2024-01-30T03:14:54;57.80;;;27.50;;
77010;SDS011;65945;53.148;17.956;2024-01-30T03:17:20;68.30;;;28.80;;
77010;SDS011;65945;53.148;17.956;2024-01-30T03:19:47;70.90;;;30.90;;
77010;SDS011;65945;53.148;17.956;2024-01-30T03:22:14;74.00;;;31.30;;
77010;SDS011;65945;53.148;17.956;2024-01-30T03:24:40;72.80;;;30.20;;
77010;SDS011;65945;53.148;17.956;2024-01-30T03:27:07;63.90;;;25.90;;
77010;SDS011;65945;53.148;17.956;2024-01-30T03:29:34;54.00;;;23.30;;
77010;SDS011;65945;53.148;17.956;2024-01-30T03:32:01;61.00;;;26.40;;
77010;SDS011;65945;53.148;17.956;2024-01-30T03:34:28;65.40;;;25.50;;
77010;SDS011;65945;53.148;17.956;2024-01-30T03:36:54;66.50;;;28.80;;
77010;SDS011;65945;53.148;17.956;2024-01-30T03:39:21;66.80;;;27.00;;
77010;SDS011;65945;53.148;17.956;2024-01-30T03:41:47;62.10;;;27.80;;
77010;SDS011;65945;53.148;17.956;2024-01-30T03:44:14;61.80;;;25.10;;
77010;SDS011;65945;53.148;17.956;2024-01-30T03:46:41;57.40;;;25.50;;
77010;SDS011;65945;53.148;17.956;2024-01-30T03:49:07;60.10;;;26.60;;
77010;SDS011;65945;53.148;17.956;2024-01-30T03:51:34;56.90;;;23.60;;
77010;SDS011;65945;53.148;17.956;2024-01-30T03:54:00;65.00;;;27.90;;
77010;SDS011;65945;53.148;17.956;2024-01-30T03:56:27;53.50;;;24.10;;
77010;SDS011;65945;53.148;17.956;2024-01-30T03:58:53;65.40;;;27.30;;
77010;SDS011;65945;53.148;17.956;2024-01-30T04:01:20;62.70;;;26.60;;
77010;SDS011;65945;53.148;17.956;2024-01-30T04:03:47;63.60;;;24.80;;
77010;SDS011;65945;53.148;17.956;2024-01-30T04:06:13;60.40;;;25.70;;
77010;SDS011;65945;53.148;17.956;2024-01-30T04:08:40;62.10;;;27.20;;
77010;SDS011;65945;53.148;17.956;2024-01-30T04:11:06;68.30;;;30.00;;
77010;SDS011;65945;53.148;17.956;2024-01-30T04:13:33;53.90;;;23.60;;
77010;SDS011;65945;53.148;17.956;2024-01-30T04:16:00;51.90;;;23.50;;
77010;SDS011;65945;53.148;17.956;2024-01-30T04:18:30;57.90;;;24.00;;
77010;SDS011;65945;53.148;17.956;2024-01-30T04:20:56;52.00;;;24.20;;
77010;SDS011;65945;53.148;17.956;2024-01-30T04:23:23;59.40;;;23.60;;
77010;SDS011;65945;53.148;17.956;2024-01-30T04:25:49;58.10;;;23.70;;
77010;SDS011;65945;53.148;17.956;2024-01-30T04:28:16;59.20;;;24.20;;
77010;SDS011;65945;53.148;17.956;2024-01-30T04:30:42;51.60;;;23.10;;
77010;SDS011;65945;53.148;17.956;2024-01-30T04:33:10;52.20;;;23.20;;
77010;SDS011;65945;53.148;17.956;2024-01-30T04:35:37;48.70;;;22.70;;
77010;SDS011;65945;53.148;17.956;2024-01-30T04:38:04;55.20;;;23.80;;
77010;SDS011;65945;53.148;17.956;2024-01-30T04:40:31;51.30;;;23.30;;
77010;SDS011;65945;53.148;17.956;2024-01-30T04:42:58;55.00;;;22.80;;
77010;SDS011;65945;53.148;17.956;2024-01-30T04:45:24;57.20;;;24.40;;
77010;SDS011;65945;53.148;17.956;2024-01-30T04:47:51;56.50;;;21.70;;
77010;SDS011;65945;53.148;17.956;2024-01-30T04:50:18;58.90;;;24.00;;
77010;SDS011;65945;53.148;17.956;2024-01-30T04:52:45;50.30;;;22.80;;
77010;SDS011;65945;53.148;17.956;2024-01-30T04:55:11;60.80;;;25.90;;
77010;SDS011;65945;53.148;17.956;2024-01-30T04:57:38;55.90;;;23.70;;
77010;SDS011;65945;53.148;17.956;2024-01-30T05:00:05;53.90;;;21.70;;
77010;SDS011;65945;53.148;17.956;2024-01-30T05:02:32;46.30;;;21.10;;
77010;SDS011;65945;53.148;17.956;2024-01-30T05:04:59;49.70;;;22.20;;
77010;SDS011;65945;53.148;17.956;2024-01-30T05:07:25;52.20;;;23.30;;
77010;SDS011;65945;53.148;17.956;2024-01-30T05:09:52;51.80;;;22.70;;
77010;SDS011;65945;53.148;17.956;2024-01-30T05:12:20;50.00;;;21.70;;
77010;SDS011;65945;53.148;17.956;2024-01-30T05:14:47;50.80;;;23.10;;
77010;SDS011;65945;53.148;17.956;2024-01-30T05:17:13;52.20;;;24.30;;
77010;SDS011;65945;53.148;17.956;2024-01-30T05:19:40;54.90;;;25.20;;
77010;SDS011;65945;53.148;17.956;2024-01-30T05:22:07;54.30;;;23.60;;
77010;SDS011;65945;53.148;17.956;2024-01-30T05:24:33;55.60;;;23.30;;
77010;SDS011;65945;53.148;17.956;2024-01-30T05:27:00;56.80;;;24.40;;
77010;SDS011;65945;53.148;17.956;2024-01-30T05:29:27;53.90;;;24.00;;
77010;SDS011;65945;53.148;17.956;2024-01-30T05:31:53;57.60;;;26.40;;
77010;SDS011;65945;53.148;17.956;2024-01-30T05:34:20;52.20;;;23.20;;
77010;SDS011;65945;53.148;17.956;2024-01-30T05:36:46;49.70;;;22.70;;
77010;SDS011;65945;53.148;17.956;2024-01-30T05:39:13;55.90;;;22.90;;
77010;SDS011;65945;53.148;17.956;2024-01-30T05:41:40;57.70;;;22.60;;
77010;SDS011;65945;53.148;17.956;2024-01-30T05:44:06;53.70;;;22.00;;
77010;SDS011;65945;53.148;17.956;2024-01-30T05:46:33;46.10;;;20.00;;
77010;SDS011;65945;53.148;17.956;2024-01-30T05:49:00;47.60;;;22.50;;
77010;SDS011;65945;53.148;17.956;2024-01-30T05:51:26;48.10;;;21.70;;
77010;SDS011;65945;53.148;17.956;2024-01-30T05:53:54;49.50;;;23.00;;
77010;SDS011;65945;53.148;17.956;2024-01-30T05:56:21;44.40;;;20.90;;
77010;SDS011;65945;53.148;17.956;2024-01-30T05:58:47;42.40;;;20.20;;
77010;SDS011;65945;53.148;17.956;2024-01-30T06:01:14;40.40;;;19.50;;
77010;SDS011;65945;53.148;17.956;2024-01-30T06:03:40;52.20;;;24.50;;
77010;SDS011;65945;53.148;17.956;2024-01-30T06:06:07;56.20;;;24.70;;
77010;SDS011;65945;53.148;17.956;2024-01-30T06:08:33;60.30;;;26.30;;
77010;SDS011;65945;53.148;17.956;2024-01-30T06:11:00;53.10;;;25.60;;
77010;SDS011;65945;53.148;17.956;2024-01-30T06:13:27;52.90;;;25.10;;
77010;SDS011;65945;53.148;17.956;2024-01-30T06:15:54;61.60;;;24.70;;
77010;SDS011;65945;53.148;17.956;2024-01-30T06:18:20;45.90;;;20.10;;
77010;SDS011;65945;53.148;17.956;2024-01-30T06:20:47;59.70;;;24.20;;
77010;SDS011;65945;53.148;17.956;2024-01-30T06:23:13;56.40;;;23.00;;
77010;SDS011;65945;53.148;17.956;2024-01-30T06:25:40;57.90;;;24.00;;
77010;SDS011;65945;53.148;17.956;2024-01-30T06:28:07;66.60;;;27.90;;
77010;SDS011;65945;53.148;17.956;2024-01-30T06:30:34;52.50;;;24.50;;
77010;SDS011;65945;53.148;17.956;2024-01-30T06:33:01;59.20;;;25.20;;
77010;SDS011;65945;53.148;17.956;2024-01-30T06:35:27;58.70;;;27.40;;
77010;SDS011;65945;53.148;17.956;2024-01-30T06:37:55;76.60;;;34.80;;
77010;SDS011;65945;53.148;17.956;2024-01-30T06:40:22;57.90;;;27.60;;
77010;SDS011;65945;53.148;17.956;2024-01-30T06:42:48;58.90;;;27.60;;
77010;SDS011;65945;53.148;17.956;2024-01-30T06:45:15;60.10;;;26.50;;
77010;SDS011;65945;53.148;17.956;2024-01-30T06:47:42;65.10;;;27.20;;
77010;SDS011;65945;53.148;17.956;2024-01-30T06:50:08;54.70;;;24.50;;
77010;SDS011;65945;53.148;17.956;2024-01-30T06:52:35;56.00;;;26.90;;
77010;SDS011;65945;53.148;17.956;2024-01-30T06:55:02;62.90;;;29.50;;
77010;SDS011;65945;53.148;17.956;2024-01-30T06:57:29;69.00;;;29.90;;
77010;SDS011;65945;53.148;17.956;2024-01-30T06:59:56;60.50;;;26.90;;
77010;SDS011;65945;53.148;17.956;2024-01-30T07:02:23;65.80;;;30.20;;
77010;SDS011;65945;53.148;17.956;2024-01-30T07:04:50;98.90;;;42.60;;
77010;SDS011;65945;53.148;17.956;2024-01-30T07:07:16;117.10;;;51.80;;
77010;SDS011;65945;53.148;17.956;2024-01-30T07:09:43;77.00;;;36.10;;
77010;SDS011;65945;53.148;17.956;2024-01-30T07:12:11;75.00;;;36.40;;
77010;SDS011;65945;53.148;17.956;2024-01-30T07:14:37;79.30;;;35.20;;
77010;SDS011;65945;53.148;17.956;2024-01-30T07:17:04;109.80;;;42.90;;
77010;SDS011;65945;53.148;17.956;2024-01-30T07:19:30;105.20;;;47.30;;
77010;SDS011;65945;53.148;17.956;2024-01-30T07:21:57;103.60;;;46.30;;
77010;SDS011;65945;53.148;17.956;2024-01-30T07:24:24;77.90;;;37.40;;
77010;SDS011;65945;53.148;17.956;2024-01-30T07:26:50;67.60;;;32.40;;
77010;SDS011;65945;53.148;17.956;2024-01-30T07:29:17;59.60;;;29.90;;
77010;SDS011;65945;53.148;17.956;2024-01-30T07:31:44;62.00;;;28.50;;
77010;SDS011;65945;53.148;17.956;2024-01-30T07:34:11;69.20;;;31.10;;
77010;SDS011;65945;53.148;17.956;2024-01-30T07:36:38;94.30;;;49.90;;
77010;SDS011;65945;53.148;17.956;2024-01-30T07:39:05;95.10;;;44.40;;
77010;SDS011;65945;53.148;17.956;2024-01-30T07:41:31;74.00;;;37.20;;
77010;SDS011;65945;53.148;17.956;2024-01-30T07:43:58;82.70;;;39.00;;
77010;SDS011;65945;53.148;17.956;2024-01-30T07:46:25;74.10;;;39.10;;
77010;SDS011;65945;53.148;17.956;2024-01-30T07:48:51;79.90;;;37.30;;
77010;SDS011;65945;53.148;17.956;2024-01-30T07:51:18;73.10;;;33.40;;
77010;SDS011;65945;53.148;17.956;2024-01-30T07:53:44;66.50;;;30.80;;
77010;SDS011;65945;53.148;17.956;2024-01-30T07:56:11;64.80;;;28.90;;
77010;SDS011;65945;53.148;17.956;2024-01-30T07:58:38;68.40;;;30.50;;
77010;SDS011;65945;53.148;17.956;2024-01-30T08:01:04;56.50;;;28.20;;
77010;SDS011;65945;53.148;17.956;2024-01-30T08:03:31;58.20;;;27.40;;
77010;SDS011;65945;53.148;17.956;2024-01-30T08:05:57;62.70;;;29.00;;
77010;SDS011;65945;53.148;17.956;2024-01-30T08:08:24;60.40;;;30.90;;
77010;SDS011;65945;53.148;17.956;2024-01-30T08:10:52;66.40;;;31.30;;
77010;SDS011;65945;53.148;17.956;2024-01-30T08:13:18;64.70;;;29.90;;
77010;SDS011;65945;53.148;17.956;2024-01-30T08:15:45;57.20;;;28.90;;
77010;SDS011;65945;53.148;17.956;2024-01-30T08:18:12;60.90;;;29.40;;
77010;SDS011;65945;53.148;17.956;2024-01-30T08:20:38;57.20;;;28.90;;
77010;SDS011;65945;53.148;17.956;2024-01-30T08:23:05;64.80;;;29.10;;
77010;SDS011;65945;53.148;17.956;2024-01-30T08:25:32;90.80;;;43.80;;
77010;SDS011;65945;53.148;17.956;2024-01-30T08:27:58;100.80;;;51.40;;
77010;SDS011;65945;53.148;17.956;2024-01-30T08:30:26;104.50;;;52.70;;
77010;SDS011;65945;53.148;17.956;2024-01-30T08:32:54;91.10;;;42.70;;
77010;SDS011;65945;53.148;17.956;2024-01-30T08:35:20;85.00;;;41.70;;
77010;SDS011;65945;53.148;17.956;2024-01-30T08:37:47;89.40;;;42.70;;
77010;SDS011;65945;53.148;17.956;2024-01-30T08:40:13;83.30;;;41.80;;
77010;SDS011;65945;53.148;17.956;2024-01-30T08:42:40;83.90;;;42.50;;
77010;SDS011;65945;53.148;17.956;2024-01-30T08:45:07;93.60;;;46.40;;
77010;SDS011;65945;53.148;17.956;2024-01-30T08:47:36;94.20;;;46.70;;
77010;SDS011;65945;53.148;17.956;2024-01-30T08:50:03;96.10;;;48.20;;
77010;SDS011;65945;53.148;17.956;2024-01-30T08:52:30;93.00;;;45.30;;
77010;SDS011;65945;53.148;17.956;2024-01-30T08:54:57;99.60;;;42.50;;
77010;SDS011;65945;53.148;17.956;2024-01-30T08:57:23;98.00;;;41.90;;
77010;SDS011;65945;53.148;17.956;2024-01-30T08:59:50;92.60;;;44.20;;
77010;SDS011;65945;53.148;17.956;2024-01-30T09:02:17;89.60;;;40.40;;
77010;SDS011;65945;53.148;17.956;2024-01-30T09:04:44;85.70;;;36.90;;
77010;SDS011;65945;53.148;17.956;2024-01-30T09:07:11;65.30;;;28.30;;
77010;SDS011;65945;53.148;17.956;2024-01-30T09:09:39;58.30;;;25.60;;
77010;SDS011;65945;53.148;17.956;2024-01-30T09:12:07;53.00;;;25.10;;
77010;SDS011;65945;53.148;17.956;2024-01-30T09:14:38;51.90;;;24.00;;
77010;SDS011;65945;53.148;17.956;2024-01-30T09:17:06;46.10;;;21.00;;
77010;SDS011;65945;53.148;17.956;2024-01-30T09:19:33;39.80;;;18.50;;
77010;SDS011;65945;53.148;17.956;2024-01-30T09:22:00;37.90;;;17.60;;
77010;SDS011;65945;53.148;17.956;2024-01-30T09:24:26;35.50;;;17.00;;
77010;SDS011;65945;53.148;17.956;2024-01-30T09:26:53;33.50;;;16.50;;
77010;SDS011;65945;53.148;17.956;2024-01-30T09:29:20;35.50;;;15.30;;
77010;SDS011;65945;53.148;17.956;2024-01-30T09:31:48;34.50;;;16.70;;
77010;SDS011;65945;53.148;17.956;2024-01-30T09:34:14;29.30;;;13.30;;
77010;SDS011;65945;53.148;17.956;2024-01-30T09:36:41;32.00;;;13.60;;
77010;SDS011;65945;53.148;17.956;2024-01-30T09:39:08;31.80;;;15.20;;
77010;SDS011;65945;53.148;17.956;2024-01-30T09:41:41;34.50;;;14.60;;
77010;SDS011;65945;53.148;17.956;2024-01-30T09:44:15;30.60;;;14.10;;
77010;SDS011;65945;53.148;17.956;2024-01-30T09:46:42;30.70;;;14.30;;
77010;SDS011;65945;53.148;17.956;2024-01-30T09:49:12;30.00;;;13.90;;
77010;SDS011;65945;53.148;17.956;2024-01-30T09:51:40;28.70;;;13.10;;
77010;SDS011;65945;53.148;17.956;2024-01-30T09:54:07;28.50;;;13.40;;
77010;SDS011;65945;53.148;17.956;2024-01-30T09:56:34;32.50;;;14.20;;
77010;SDS011;65945;53.148;17.956;2024-01-30T09:59:01;30.10;;;14.00;;
77010;SDS011;65945;53.148;17.956;2024-01-30T10:01:28;26.50;;;13.10;;
77010;SDS011;65945;53.148;17.956;2024-01-30T10:03:55;24.30;;;12.50;;
77010;SDS011;65945;53.148;17.956;2024-01-30T10:06:21;26.00;;;13.40;;
77010;SDS011;65945;53.148;17.956;2024-01-30T10:08:50;24.20;;;12.00;;
77010;SDS011;65945;53.148;17.956;2024-01-30T10:11:17;21.90;;;11.80;;
77010;SDS011;65945;53.148;17.956;2024-01-30T10:13:44;30.60;;;13.20;;
77010;SDS011;65945;53.148;17.956;2024-01-30T10:16:10;28.10;;;12.50;;
77010;SDS011;65945;53.148;17.956;2024-01-30T10:18:41;25.80;;;11.80;;
77010;SDS011;65945;53.148;17.956;2024-01-30T10:21:11;33.50;;;13.40;;
77010;SDS011;65945;53.148;17.956;2024-01-30T10:23:38;25.40;;;11.80;;
77010;SDS011;65945;53.148;17.956;2024-01-30T10:26:04;25.40;;;13.20;;
77010;SDS011;65945;53.148;17.956;2024-01-30T10:28:33;24.70;;;10.90;;
77010;SDS011;65945;53.148;17.956;2024-01-30T10:31:00;24.70;;;11.10;;
77010;SDS011;65945;53.148;17.956;2024-01-30T10:33:27;19.30;;;11.10;;
77010;SDS011;65945;53.148;17.956;2024-01-30T10:36:05;21.60;;;10.90;;
77010;SDS011;65945;53.148;17.956;2024-01-30T10:38:32;19.40;;;10.20;;
77010;SDS011;65945;53.148;17.956;2024-01-30T10:41:00;22.20;;;10.60;;
77010;SDS011;65945;53.148;17.956;2024-01-30T10:43:37;22.00;;;11.00;;
77010;SDS011;65945;53.148;17.956;2024-01-30T10:48:46;23.80;;;11.40;;
77010;SDS011;65945;53.148;17.956;2024-01-30T10:51:17;22.80;;;10.70;;
77010;SDS011;65945;53.148;17.956;2024-01-30T10:53:46;21.20;;;11.20;;
77010;SDS011;65945;53.148;17.956;2024-01-30T10:56:13;22.00;;;10.40;;
77010;SDS011;65945;53.148;17.956;2024-01-30T10:58:40;25.20;;;12.00;;
77010;SDS011;65945;53.148;17.956;2024-01-30T11:01:07;20.80;;;10.50;;
77010;SDS011;65945;53.148;17.956;2024-01-30T11:03:35;24.80;;;11.30;;
77010;SDS011;65945;53.148;17.956;2024-01-30T11:06:03;22.70;;;10.80;;
77010;SDS011;65945;53.148;17.956;2024-01-30T11:08:31;19.20;;;10.20;;
77010;SDS011;65945;53.148;17.956;2024-01-30T11:10:58;18.70;;;9.40;;
77010;SDS011;65945;53.148;17.956;2024-01-30T11:13:31;20.20;;;10.40;;
77010;SDS011;65945;53.148;17.956;2024-01-30T11:16:04;24.90;;;12.40;;
77010;SDS011;65945;53.148;17.956;2024-01-30T11:18:32;19.20;;;10.30;;
77010;SDS011;65945;53.148;17.956;2024-01-30T11:21:04;20.60;;;10.30;;
77010;SDS011;65945;53.148;17.956;2024-01-30T11:23:33;26.40;;;12.30;;
77010;SDS011;65945;53.148;17.956;2024-01-30T11:26:00;19.60;;;10.40;;
77010;SDS011;65945;53.148;17.956;2024-01-30T11:28:31;24.50;;;11.60;;
77010;SDS011;65945;53.148;17.956;2024-01-30T11:31:03;26.20;;;12.30;;
77010;SDS011;65945;53.148;17.956;2024-01-30T11:33:33;32.50;;;13.60;;
77010;SDS011;65945;53.148;17.956;2024-01-30T11:36:00;26.60;;;12.30;;
77010;SDS011;65945;53.148;17.956;2024-01-30T11:38:33;29.20;;;16.00;;
77010;SDS011;65945;53.148;17.956;2024-01-30T11:41:00;26.50;;;13.00;;
77010;SDS011;65945;53.148;17.956;2024-01-30T11:43:27;26.50;;;13.00;;
77010;SDS011;65945;53.148;17.956;2024-01-30T11:45:53;22.50;;;12.00;;
77010;SDS011;65945;53.148;17.956;2024-01-30T11:48:20;26.40;;;13.00;;
77010;SDS011;65945;53.148;17.956;2024-01-30T11:50:47;22.90;;;11.50;;
77010;SDS011;65945;53.148;17.956;2024-01-30T11:53:13;25.70;;;10.90;;
77010;SDS011;65945;53.148;17.956;2024-01-30T11:55:40;26.70;;;12.20;;
77010;SDS011;65945;53.148;17.956;2024-01-30T11:58:07;24.20;;;12.20;;
77010;SDS011;65945;53.148;17.956;2024-01-30T12:00:33;21.50;;;10.50;;
77010;SDS011;65945;53.148;17.956;2024-01-30T12:03:00;23.50;;;11.60;;
77010;SDS011;65945;53.148;17.956;2024-01-30T12:05:29;27.70;;;13.10;;
77010;SDS011;65945;53.148;17.956;2024-01-30T12:07:55;32.60;;;14.50;;
77010;SDS011;65945;53.148;17.956;2024-01-30T12:10:25;29.60;;;14.60;;
77010;SDS011;65945;53.148;17.956;2024-01-30T12:12:52;52.70;;;20.60;;
77010;SDS011;65945;53.148;17.956;2024-01-30T12:15:21;33.20;;;14.10;;
77010;SDS011;65945;53.148;17.956;2024-01-30T12:17:48;26.50;;;12.10;;
77010;SDS011;65945;53.148;17.956;2024-01-30T12:20:17;25.10;;;12.40;;
77010;SDS011;65945;53.148;17.956;2024-01-30T12:22:48;21.00;;;10.50;;
77010;SDS011;65945;53.148;17.956;2024-01-30T12:25:17;38.00;;;17.70;;
77010;SDS011;65945;53.148;17.956;2024-01-30T12:27:45;22.70;;;10.70;;
77010;SDS011;65945;53.148;17.956;2024-01-30T12:30:16;20.30;;;10.40;;
77010;SDS011;65945;53.148;17.956;2024-01-30T12:32:44;23.60;;;10.40;;
77010;SDS011;65945;53.148;17.956;2024-01-30T12:35:13;22.00;;;10.40;;
77010;SDS011;65945;53.148;17.956;2024-01-30T12:37:43;35.70;;;15.70;;
77010;SDS011;65945;53.148;17.956;2024-01-30T12:40:11;34.80;;;16.00;;
77010;SDS011;65945;53.148;17.956;2024-01-30T12:42:41;33.10;;;15.00;;
77010;SDS011;65945;53.148;17.956;2024-01-30T12:45:09;24.90;;;12.40;;
77010;SDS011;65945;53.148;17.956;2024-01-30T12:47:36;23.50;;;11.40;;
77010;SDS011;65945;53.148;17.956;2024-01-30T12:50:02;21.10;;;9.90;;
77010;SDS011;65945;53.148;17.956;2024-01-30T12:52:30;35.60;;;18.20;;
77010;SDS011;65945;53.148;17.956;2024-01-30T12:54:57;27.90;;;13.50;;
77010;SDS011;65945;53.148;17.956;2024-01-30T12:57:23;25.00;;;11.90;;
77010;SDS011;65945;53.148;17.956;2024-01-30T12:59:50;23.60;;;10.50;;
77010;SDS011;65945;53.148;17.956;2024-01-30T13:02:17;21.30;;;11.30;;
77010;SDS011;65945;53.148;17.956;2024-01-30T13:04:43;22.10;;;10.60;;
77010;SDS011;65945;53.148;17.956;2024-01-30T13:07:10;21.40;;;10.00;;
77010;SDS011;65945;53.148;17.956;2024-01-30T13:09:37;16.70;;;8.30;;
77010;SDS011;65945;53.148;17.956;2024-01-30T13:12:04;23.00;;;10.40;;
77010;SDS011;65945;53.148;17.956;2024-01-30T13:14:31;21.40;;;9.70;;
77010;SDS011;65945;53.148;17.956;2024-01-30T13:16:57;27.40;;;11.20;;
77010;SDS011;65945;53.148;17.956;2024-01-30T13:19:24;22.60;;;11.10;;
77010;SDS011;65945;53.148;17.956;2024-01-30T13:21:50;29.90;;;13.00;;
77010;SDS011;65945;53.148;17.956;2024-01-30T13:24:17;26.00;;;13.30;;
77010;SDS011;65945;53.148;17.956;2024-01-30T13:26:48;29.10;;;13.80;;
77010;SDS011;65945;53.148;17.956;2024-01-30T13:29:15;28.00;;;13.80;;
77010;SDS011;65945;53.148;17.956;2024-01-30T13:31:42;28.70;;;12.70;;
77010;SDS011;65945;53.148;17.956;2024-01-30T13:34:10;25.80;;;11.70;;
77010;SDS011;65945;53.148;17.956;2024-01-30T13:36:37;42.70;;;18.00;;
77010;SDS011;65945;53.148;17.956;2024-01-30T13:39:04;28.50;;;13.00;;
77010;SDS011;65945;53.148;17.956;2024-01-30T13:41:34;23.10;;;10.80;;
77010;SDS011;65945;53.148;17.956;2024-01-30T13:44:01;25.10;;;11.10;;
77010;SDS011;65945;53.148;17.956;2024-01-30T13:46:30;26.50;;;12.00;;
77010;SDS011;65945;53.148;17.956;2024-01-30T13:48:57;28.00;;;12.40;;
77010;SDS011;65945;53.148;17.956;2024-01-30T13:51:23;28.30;;;12.90;;
77010;SDS011;65945;53.148;17.956;2024-01-30T13:53:50;35.20;;;15.30;;
77010;SDS011;65945;53.148;17.956;2024-01-30T13:56:17;48.20;;;20.50;;
77010;SDS011;65945;53.148;17.956;2024-01-30T13:58:43;45.60;;;19.10;;
77010;SDS011;65945;53.148;17.956;2024-01-30T14:01:11;49.10;;;21.20;;
77010;SDS011;65945;53.148;17.956;2024-01-30T14:03:37;51.30;;;23.70;;
77010;SDS011;65945;53.148;17.956;2024-01-30T14:06:04;43.20;;;19.40;;
77010;SDS011;65945;53.148;17.956;2024-01-30T14:08:31;50.00;;;19.70;;
77010;SDS011;65945;53.148;17.956;2024-01-30T14:10:59;61.50;;;24.40;;